sensor_id;sensor_type;location;lat;lon;timestamp;pressure;altitude;pressure_sealevel;temperature;humidity
52625;BME280;38519;52.540;13.410;2022-09-02T00:00:57;101561.34;;;13.80;81.63
52625;BME280;38519;52.540;13.410;2022-09-02T00:03:25;101557.38;;;13.73;82.01
52625;BME280;38519;52.540;13.410;2022-09-02T00:05:51;101559.00;;;13.71;82.55
52625;BME280;38519;52.540;13.410;2022-09-02T00:08:16;101561.69;;;13.84;81.92
52625;BME280;38519;52.540;13.410;2022-09-02T00:10:42;101561.13;;;13.77;81.91
52625;BME280;38519;52.540;13.410;2022-09-02T00:13:08;101563.53;;;13.86;81.04
52625;BME280;38519;52.540;13.410;2022-09-02T00:15:34;101561.34;;;13.80;81.47
52625;BME280;38519;52.540;13.410;2022-09-02T00:18:00;101556.69;;;13.88;81.48
52625;BME280;38519;52.540;13.410;2022-09-02T00:20:27;101556.13;;;13.92;81.06
52625;BME280;38519;52.540;13.410;2022-09-02T00:22:53;101551.53;;;13.89;81.29
52625;BME280;38519;52.540;13.410;2022-09-02T00:25:18;101554.25;;;14.02;79.83
52625;BME280;38519;52.540;13.410;2022-09-02T00:27:43;101555.41;;;13.94;81.42
52625;BME280;38519;52.540;13.410;2022-09-02T00:30:09;101553.91;;;13.98;80.47
52625;BME280;38519;52.540;13.410;2022-09-02T00:32:35;101552.66;;;13.93;80.76
52625;BME280;38519;52.540;13.410;2022-09-02T00:35:01;101551.38;;;13.99;80.42
52625;BME280;38519;52.540;13.410;2022-09-02T00:37:27;101551.38;;;13.99;80.00
52625;BME280;38519;52.540;13.410;2022-09-02T00:39:52;101552.56;;;14.03;79.77
52625;BME280;38519;52.540;13.410;2022-09-02T00:42:21;101547.19;;;14.01;80.55
52625;BME280;38519;52.540;13.410;2022-09-02T00:44:46;101541.81;;;14.00;80.36
52625;BME280;38519;52.540;13.410;2022-09-02T00:47:12;101543.28;;;13.96;80.46
52625;BME280;38519;52.540;13.410;2022-09-02T00:49:41;101543.50;;;13.99;80.67
52625;BME280;38519;52.540;13.410;2022-09-02T00:52:12;101535.63;;;13.99;80.72
52625;BME280;38519;52.540;13.410;2022-09-02T00:55:00;101535.06;;;14.03;79.85
52625;BME280;38519;52.540;13.410;2022-09-02T00:57:28;101542.38;;;14.08;79.72
52625;BME280;38519;52.540;13.410;2022-09-02T01:00:00;101535.28;;;14.07;80.26
52625;BME280;38519;52.540;13.410;2022-09-02T01:02:27;101534.91;;;14.14;79.46
52625;BME280;38519;52.540;13.410;2022-09-02T01:04:52;101534.47;;;14.19;78.97
52625;BME280;38519;52.540;13.410;2022-09-02T01:07:23;101529.88;;;14.17;78.69
52625;BME280;38519;52.540;13.410;2022-09-02T01:09:52;101527.63;;;14.10;79.58
52625;BME280;38519;52.540;13.410;2022-09-02T01:12:19;101523.28;;;14.10;78.78
52625;BME280;38519;52.540;13.410;2022-09-02T01:14:45;101526.47;;;14.18;78.86
52625;BME280;38519;52.540;13.410;2022-09-02T01:17:12;101521.91;;;14.15;79.28
52625;BME280;38519;52.540;13.410;2022-09-02T01:19:39;101519.03;;;14.12;79.25
52625;BME280;38519;52.540;13.410;2022-09-02T01:22:16;101519.59;;;14.20;78.32
52625;BME280;38519;52.540;13.410;2022-09-02T01:24:42;101532.50;;;14.17;78.66
52625;BME280;38519;52.540;13.410;2022-09-02T01:27:07;101522.72;;;14.14;78.96
52625;BME280;38519;52.540;13.410;2022-09-02T01:29:33;101526.94;;;14.12;79.81
52625;BME280;38519;52.540;13.410;2022-09-02T01:31:58;101522.00;;;14.17;79.94
52625;BME280;38519;52.540;13.410;2022-09-02T01:34:24;101521.31;;;14.19;78.32
52625;BME280;38519;52.540;13.410;2022-09-02T01:36:49;101523.06;;;14.19;78.12
52625;BME280;38519;52.540;13.410;2022-09-02T01:39:15;101521.91;;;14.15;78.99
52625;BME280;38519;52.540;13.410;2022-09-02T01:41:40;101521.44;;;14.09;79.75
52625;BME280;38519;52.540;13.410;2022-09-02T01:44:06;101522.59;;;14.13;78.91
52625;BME280;38519;52.540;13.410;2022-09-02T01:46:31;101520.44;;;14.07;79.03
52625;BME280;38519;52.540;13.410;2022-09-02T01:48:58;101519.31;;;14.03;79.74
52625;BME280;38519;52.540;13.410;2022-09-02T01:51:23;101522.41;;;13.98;80.47
52625;BME280;38519;52.540;13.410;2022-09-02T01:53:48;101524.13;;;13.97;79.44
52625;BME280;38519;52.540;13.410;2022-09-02T01:56:14;101524.91;;;13.96;79.97
52625;BME280;38519;52.540;13.410;2022-09-02T01:58:39;101524.50;;;13.90;80.38
52625;BME280;38519;52.540;13.410;2022-09-02T02:01:05;101519.19;;;14.02;80.36
52625;BME280;38519;52.540;13.410;2022-09-02T02:03:32;101520.59;;;13.97;79.92
52625;BME280;38519;52.540;13.410;2022-09-02T02:05:58;101517.97;;;13.97;79.63
52625;BME280;38519;52.540;13.410;2022-09-02T02:08:23;101510.78;;;13.94;80.18
52625;BME280;38519;52.540;13.410;2022-09-02T02:10:48;101509.25;;;13.98;79.95
52625;BME280;38519;52.540;13.410;2022-09-02T02:13:14;101509.16;;;14.08;79.56
52625;BME280;38519;52.540;13.410;2022-09-02T02:15:41;101512.22;;;14.02;78.97
52625;BME280;38519;52.540;13.410;2022-09-02T02:18:07;101509.38;;;13.99;79.57
52625;BME280;38519;52.540;13.410;2022-09-02T02:20:33;101507.09;;;14.04;79.02
52625;BME280;38519;52.540;13.410;2022-09-02T02:22:58;101502.78;;;13.93;79.29
52625;BME280;38519;52.540;13.410;2022-09-02T02:25:23;101500.97;;;13.92;79.51
52625;BME280;38519;52.540;13.410;2022-09-02T02:27:49;101506.13;;;13.90;79.39
52625;BME280;38519;52.540;13.410;2022-09-02T02:30:16;101504.28;;;13.89;79.56
52625;BME280;38519;52.540;13.410;2022-09-02T02:32:42;101504.84;;;13.97;79.32
52625;BME280;38519;52.540;13.410;2022-09-02T02:35:08;101508.03;;;13.93;80.33
52625;BME280;38519;52.540;13.410;2022-09-02T02:37:35;101497.09;;;13.87;79.55
52625;BME280;38519;52.540;13.410;2022-09-02T02:40:00;101493.81;;;13.77;80.26
52625;BME280;38519;52.540;13.410;2022-09-02T02:42:25;101505.78;;;13.86;80.42
52625;BME280;38519;52.540;13.410;2022-09-02T02:44:51;101499.81;;;13.88;80.17
52625;BME280;38519;52.540;13.410;2022-09-02T02:47:16;101503.72;;;13.81;80.68
52625;BME280;38519;52.540;13.410;2022-09-02T02:49:42;101504.44;;;13.67;81.18
52625;BME280;38519;52.540;13.410;2022-09-02T02:52:09;101515.28;;;13.60;82.10
52625;BME280;38519;52.540;13.410;2022-09-02T02:54:35;101506.38;;;13.58;82.28
52625;BME280;38519;52.540;13.410;2022-09-02T02:57:01;101502.84;;;13.57;82.55
52625;BME280;38519;52.540;13.410;2022-09-02T02:59:26;101497.38;;;13.54;83.18
52625;BME280;38519;52.540;13.410;2022-09-02T03:01:53;101501.81;;;13.67;82.67
52625;BME280;38519;52.540;13.410;2022-09-02T03:04:19;101494.53;;;13.51;83.42
52625;BME280;38519;52.540;13.410;2022-09-02T03:06:44;101502.50;;;13.53;82.83
52625;BME280;38519;52.540;13.410;2022-09-02T03:09:09;101503.66;;;13.44;83.64
52625;BME280;38519;52.540;13.410;2022-09-02T03:11:35;101500.69;;;13.40;83.52
52625;BME280;38519;52.540;13.410;2022-09-02T03:14:00;101504.44;;;13.43;83.11
52625;BME280;38519;52.540;13.410;2022-09-02T03:16:26;101508.44;;;13.38;84.18
52625;BME280;38519;52.540;13.410;2022-09-02T03:18:52;101493.94;;;13.32;85.24
52625;BME280;38519;52.540;13.410;2022-09-02T03:21:17;101503.19;;;13.26;85.15
52625;BME280;38519;52.540;13.410;2022-09-02T03:23:43;101497.03;;;13.26;85.38
52625;BME280;38519;52.540;13.410;2022-09-02T03:26:14;101497.47;;;13.20;85.56
52625;BME280;38519;52.540;13.410;2022-09-02T03:28:39;101504.66;;;13.23;85.14
52625;BME280;38519;52.540;13.410;2022-09-02T03:31:05;101495.31;;;13.15;85.99
52625;BME280;38519;52.540;13.410;2022-09-02T03:33:31;101494.06;;;13.21;85.60
52625;BME280;38519;52.540;13.410;2022-09-02T03:35:56;101494.63;;;13.17;85.26
52625;BME280;38519;52.540;13.410;2022-09-02T03:38:22;101496.31;;;13.28;85.20
52625;BME280;38519;52.540;13.410;2022-09-02T03:40:48;101495.44;;;13.16;86.12
52625;BME280;38519;52.540;13.410;2022-09-02T03:43:13;101491.53;;;13.11;85.77
52625;BME280;38519;52.540;13.410;2022-09-02T03:45:39;101494.25;;;13.12;86.37
52625;BME280;38519;52.540;13.410;2022-09-02T03:48:06;101493.13;;;12.97;86.60
52625;BME280;38519;52.540;13.410;2022-09-02T03:50:34;101492.91;;;12.94;87.06
52625;BME280;38519;52.540;13.410;2022-09-02T03:53:00;101487.66;;;12.94;87.18
52625;BME280;38519;52.540;13.410;2022-09-02T03:55:26;101488.31;;;13.03;87.37
52625;BME280;38519;52.540;13.410;2022-09-02T03:57:52;101492.91;;;13.06;87.02
52625;BME280;38519;52.540;13.410;2022-09-02T04:00:17;101488.25;;;13.02;87.08
52625;BME280;38519;52.540;13.410;2022-09-02T04:02:43;101490.03;;;13.03;87.26
52625;BME280;38519;52.540;13.410;2022-09-02T04:05:09;101482.88;;;13.00;87.10
52625;BME280;38519;52.540;13.410;2022-09-02T04:07:37;101490.63;;;12.99;86.59
52625;BME280;38519;52.540;13.410;2022-09-02T04:10:02;101487.88;;;12.97;87.79
52625;BME280;38519;52.540;13.410;2022-09-02T04:12:28;101498.81;;;13.03;87.14
52625;BME280;38519;52.540;13.410;2022-09-02T04:14:53;101498.63;;;13.00;87.05
52625;BME280;38519;52.540;13.410;2022-09-02T04:17:18;101494.34;;;12.90;87.41
52625;BME280;38519;52.540;13.410;2022-09-02T04:19:44;101495.34;;;12.81;87.91
52625;BME280;38519;52.540;13.410;2022-09-02T04:22:09;101497.66;;;12.76;88.14
52625;BME280;38519;52.540;13.410;2022-09-02T04:24:34;101500.41;;;12.89;87.74
52625;BME280;38519;52.540;13.410;2022-09-02T04:27:00;101495.72;;;12.85;88.31
52625;BME280;38519;52.540;13.410;2022-09-02T04:29:26;101505.84;;;12.81;87.71
52625;BME280;38519;52.540;13.410;2022-09-02T04:31:51;101493.88;;;12.72;88.09
52625;BME280;38519;52.540;13.410;2022-09-02T04:34:17;101499.94;;;12.83;88.24
52625;BME280;38519;52.540;13.410;2022-09-02T04:36:43;101496.97;;;12.79;87.57
52625;BME280;38519;52.540;13.410;2022-09-02T04:39:08;101499.09;;;12.72;87.94
52625;BME280;38519;52.540;13.410;2022-09-02T04:41:34;101497.66;;;12.76;88.50
52625;BME280;38519;52.540;13.410;2022-09-02T04:44:00;101504.28;;;12.83;87.47
52625;BME280;38519;52.540;13.410;2022-09-02T04:46:27;101505.72;;;12.79;88.67
52625;BME280;38519;52.540;13.410;2022-09-02T04:48:53;101505.84;;;12.81;87.92
52625;BME280;38519;52.540;13.410;2022-09-02T04:51:20;101505.59;;;12.78;87.97
52625;BME280;38519;52.540;13.410;2022-09-02T04:53:47;101501.19;;;12.77;87.88
52625;BME280;38519;52.540;13.410;2022-09-02T04:56:14;101510.41;;;12.71;88.56
52625;BME280;38519;52.540;13.410;2022-09-02T04:58:41;101506.66;;;12.80;88.15
52625;BME280;38519;52.540;13.410;2022-09-02T05:01:13;101509.94;;;12.77;88.45
52625;BME280;38519;52.540;13.410;2022-09-02T05:03:40;101511.09;;;12.81;88.43
52625;BME280;38519;52.540;13.410;2022-09-02T05:06:08;101510.00;;;12.89;87.28
52625;BME280;38519;52.540;13.410;2022-09-02T05:08:34;101507.25;;;12.87;88.07
52625;BME280;38519;52.540;13.410;2022-09-02T05:11:08;101516.97;;;13.00;86.95
52625;BME280;38519;52.540;13.410;2022-09-02T05:13:34;101505.22;;;13.07;86.04
52625;BME280;38519;52.540;13.410;2022-09-02T05:15:59;101506.13;;;13.07;86.96
52625;BME280;38519;52.540;13.410;2022-09-02T05:18:25;101508.16;;;13.00;86.85
52625;BME280;38519;52.540;13.410;2022-09-02T05:20:51;101509.41;;;13.05;86.70
52625;BME280;38519;52.540;13.410;2022-09-02T05:23:16;101512.38;;;13.09;86.50
52625;BME280;38519;52.540;13.410;2022-09-02T05:25:42;101518.22;;;13.17;86.40
52625;BME280;38519;52.540;13.410;2022-09-02T05:28:07;101520.94;;;13.19;86.10
52625;BME280;38519;52.540;13.410;2022-09-02T05:30:34;101515.63;;;13.29;85.82
52625;BME280;38519;52.540;13.410;2022-09-02T05:32:59;101515.53;;;13.39;85.78
52625;BME280;38519;52.540;13.410;2022-09-02T05:35:25;101511.75;;;13.47;84.92
52625;BME280;38519;52.540;13.410;2022-09-02T05:37:51;101514.06;;;13.55;83.71
52625;BME280;38519;52.540;13.410;2022-09-02T05:40:17;101516.69;;;13.55;83.67
52625;BME280;38519;52.540;13.410;2022-09-02T05:42:42;101515.41;;;13.61;83.57
52625;BME280;38519;52.540;13.410;2022-09-02T05:45:07;101513.00;;;13.53;83.93
52625;BME280;38519;52.540;13.410;2022-09-02T05:47:33;101515.28;;;13.60;84.00
52625;BME280;38519;52.540;13.410;2022-09-02T05:49:59;101510.50;;;13.66;84.43
52625;BME280;38519;52.540;13.410;2022-09-02T05:52:26;101511.97;;;13.74;83.15
52625;BME280;38519;52.540;13.410;2022-09-02T05:54:51;101510.47;;;13.78;82.42
52625;BME280;38519;52.540;13.410;2022-09-02T05:57:17;101513.53;;;13.72;83.32
52625;BME280;38519;52.540;13.410;2022-09-02T05:59:43;101507.88;;;13.42;84.57
52625;BME280;38519;52.540;13.410;2022-09-02T06:02:09;101513.00;;;13.53;85.32
52625;BME280;38519;52.540;13.410;2022-09-02T06:04:42;101515.06;;;13.57;84.85
52625;BME280;38519;52.540;13.410;2022-09-02T06:07:08;101516.09;;;13.59;84.92
52625;BME280;38519;52.540;13.410;2022-09-02T06:09:33;101520.28;;;13.69;85.10
52625;BME280;38519;52.540;13.410;2022-09-02T06:11:58;101513.78;;;13.75;84.41
52625;BME280;38519;52.540;13.410;2022-09-02T06:14:24;101513.66;;;13.74;84.33
52625;BME280;38519;52.540;13.410;2022-09-02T06:16:51;101519.47;;;13.81;84.12
52625;BME280;38519;52.540;13.410;2022-09-02T06:19:17;101509.31;;;13.86;83.64
52625;BME280;38519;52.540;13.410;2022-09-02T06:21:43;101508.16;;;13.94;83.59
52625;BME280;38519;52.540;13.410;2022-09-02T06:24:09;101516.00;;;14.06;82.64
52625;BME280;38519;52.540;13.410;2022-09-02T06:26:35;101515.34;;;13.97;82.96
52625;BME280;38519;52.540;13.410;2022-09-02T06:29:01;101511.50;;;14.17;81.97
52625;BME280;38519;52.540;13.410;2022-09-02T06:31:26;101517.09;;;14.21;82.59
52625;BME280;38519;52.540;13.410;2022-09-02T06:33:52;101512.84;;;14.24;82.75
52625;BME280;38519;52.540;13.410;2022-09-02T06:36:18;101517.06;;;14.33;82.28
52625;BME280;38519;52.540;13.410;2022-09-02T06:38:44;101520.19;;;14.41;81.78
52625;BME280;38519;52.540;13.410;2022-09-02T06:41:11;101509.34;;;14.48;81.29
52625;BME280;38519;52.540;13.410;2022-09-02T06:43:37;101511.06;;;14.48;81.45
52625;BME280;38519;52.540;13.410;2022-09-02T06:46:02;101520.53;;;14.46;80.39
52625;BME280;38519;52.540;13.410;2022-09-02T06:48:28;101521.59;;;14.36;81.62
52625;BME280;38519;52.540;13.410;2022-09-02T06:50:53;101516.66;;;14.41;81.64
52625;BME280;38519;52.540;13.410;2022-09-02T06:53:19;101521.25;;;14.43;81.89
52625;BME280;38519;52.540;13.410;2022-09-02T06:55:44;101508.63;;;14.26;81.91
52625;BME280;38519;52.540;13.410;2022-09-02T06:58:10;101514.25;;;14.44;81.73
52625;BME280;38519;52.540;13.410;2022-09-02T07:00:36;101512.84;;;14.49;81.07
52625;BME280;38519;52.540;13.410;2022-09-02T07:03:01;101506.59;;;14.47;81.71
52625;BME280;38519;52.540;13.410;2022-09-02T07:05:45;101512.75;;;14.47;82.79
52625;BME280;38519;52.540;13.410;2022-09-02T07:08:11;101508.25;;;14.58;81.58
52625;BME280;38519;52.540;13.410;2022-09-02T07:10:37;101507.84;;;14.77;81.31
52625;BME280;38519;52.540;13.410;2022-09-02T07:13:03;101510.06;;;14.84;80.46
52625;BME280;38519;52.540;13.410;2022-09-02T07:15:29;101515.66;;;15.02;80.23
52625;BME280;38519;52.540;13.410;2022-09-02T07:17:54;101510.97;;;15.23;78.07
52625;BME280;38519;52.540;13.410;2022-09-02T07:20:19;101517.63;;;15.45;78.47
52625;BME280;38519;52.540;13.410;2022-09-02T07:22:44;101520.66;;;15.51;77.86
52625;BME280;38519;52.540;13.410;2022-09-02T07:25:10;101515.00;;;15.32;78.62
52625;BME280;38519;52.540;13.410;2022-09-02T07:27:35;101512.59;;;15.35;79.15
52625;BME280;38519;52.540;13.410;2022-09-02T07:30:01;101519.47;;;15.46;78.29
52625;BME280;38519;52.540;13.410;2022-09-02T07:32:29;101515.69;;;15.42;78.62
52625;BME280;38519;52.540;13.410;2022-09-02T07:34:54;101514.59;;;15.52;77.95
52625;BME280;38519;52.540;13.410;2022-09-02T07:37:20;101512.25;;;15.57;77.97
52625;BME280;38519;52.540;13.410;2022-09-02T07:39:45;101519.84;;;15.65;77.31
52625;BME280;38519;52.540;13.410;2022-09-02T07:42:11;101512.91;;;15.79;77.04
52625;BME280;38519;52.540;13.410;2022-09-02T07:44:37;101513.56;;;15.90;76.54
52625;BME280;38519;52.540;13.410;2022-09-02T07:47:03;101514.97;;;15.98;76.74
52625;BME280;38519;52.540;13.410;2022-09-02T07:49:29;101510.56;;;16.12;76.11
52625;BME280;38519;52.540;13.410;2022-09-02T07:51:54;101521.25;;;16.29;74.68
52625;BME280;38519;52.540;13.410;2022-09-02T07:54:22;101520.84;;;16.36;74.63
52625;BME280;38519;52.540;13.410;2022-09-02T07:56:48;101525.34;;;16.52;73.36
52625;BME280;38519;52.540;13.410;2022-09-02T07:59:14;101516.41;;;16.50;73.55
52625;BME280;38519;52.540;13.410;2022-09-02T08:01:39;101511.28;;;16.66;72.83
52625;BME280;38519;52.540;13.410;2022-09-02T08:04:07;101517.19;;;16.77;71.83
52625;BME280;38519;52.540;13.410;2022-09-02T08:06:32;101523.34;;;16.91;71.39
52625;BME280;38519;52.540;13.410;2022-09-02T08:08:58;101518.63;;;17.00;71.54
52625;BME280;38519;52.540;13.410;2022-09-02T08:11:23;101521.63;;;17.06;70.68
52625;BME280;38519;52.540;13.410;2022-09-02T08:13:49;101513.25;;;16.99;71.30
52625;BME280;38519;52.540;13.410;2022-09-02T08:16:14;101520.16;;;17.11;70.04
52625;BME280;38519;52.540;13.410;2022-09-02T08:18:40;101518.25;;;17.24;69.54
52625;BME280;38519;52.540;13.410;2022-09-02T08:21:05;101513.66;;;17.36;69.11
52625;BME280;38519;52.540;13.410;2022-09-02T08:23:30;101508.75;;;17.42;69.48
52625;BME280;38519;52.540;13.410;2022-09-02T08:25:59;101507.81;;;17.57;68.23
52625;BME280;38519;52.540;13.410;2022-09-02T08:28:24;101515.69;;;17.72;67.45
52625;BME280;38519;52.540;13.410;2022-09-02T08:30:51;101514.16;;;17.75;68.15
52625;BME280;38519;52.540;13.410;2022-09-02T08:33:17;101507.31;;;17.79;66.72
52625;BME280;38519;52.540;13.410;2022-09-02T08:35:42;101508.19;;;17.94;66.43
52625;BME280;38519;52.540;13.410;2022-09-02T08:38:07;101512.22;;;18.04;65.22
52625;BME280;38519;52.540;13.410;2022-09-02T08:40:36;101507.72;;;18.18;63.78
52625;BME280;38519;52.540;13.410;2022-09-02T08:43:04;101509.81;;;18.24;63.98
52625;BME280;38519;52.540;13.410;2022-09-02T08:50:26;101509.72;;;18.38;62.76
52625;BME280;38519;52.540;13.410;2022-09-02T08:55:42;101508.31;;;18.45;62.63
52625;BME280;38519;52.540;13.410;2022-09-02T08:58:08;101502.19;;;18.63;61.60
52625;BME280;38519;52.540;13.410;2022-09-02T09:00:35;101503.75;;;18.59;60.35
52625;BME280;38519;52.540;13.410;2022-09-02T09:08:17;101496.56;;;18.89;57.98
52625;BME280;38519;52.540;13.410;2022-09-02T09:13:48;101494.06;;;18.92;57.66
52625;BME280;38519;52.540;13.410;2022-09-02T09:19:02;101483.03;;;19.19;55.30
52625;BME280;38519;52.540;13.410;2022-09-02T09:21:32;101479.09;;;19.29;53.13
52625;BME280;38519;52.540;13.410;2022-09-02T09:23:58;101485.75;;;19.39;53.14
52625;BME280;38519;52.540;13.410;2022-09-02T09:26:27;101485.31;;;19.47;52.98
52625;BME280;38519;52.540;13.410;2022-09-02T09:28:52;101485.31;;;19.65;51.28
52625;BME280;38519;52.540;13.410;2022-09-02T09:31:20;101485.19;;;19.44;51.44
52625;BME280;38519;52.540;13.410;2022-09-02T09:33:55;101486.47;;;19.53;51.88
52625;BME280;38519;52.540;13.410;2022-09-02T09:36:41;101473.13;;;19.51;51.19
52625;BME280;38519;52.540;13.410;2022-09-02T09:39:15;101473.28;;;19.54;51.52
52625;BME280;38519;52.540;13.410;2022-09-02T09:41:41;101472.25;;;19.33;50.77
52625;BME280;38519;52.540;13.410;2022-09-02T09:44:07;101474.66;;;19.46;50.34
52625;BME280;38519;52.540;13.410;2022-09-02T09:46:32;101473.94;;;19.50;49.98
52625;BME280;38519;52.540;13.410;2022-09-02T09:48:58;101473.66;;;19.80;49.33
52625;BME280;38519;52.540;13.410;2022-09-02T09:51:23;101473.25;;;19.90;48.41
52625;BME280;38519;52.540;13.410;2022-09-02T09:53:49;101466.53;;;19.79;48.15
52625;BME280;38519;52.540;13.410;2022-09-02T10:03:36;101449.50;;;20.11;48.51
52625;BME280;38519;52.540;13.410;2022-09-02T10:06:24;101455.16;;;20.38;47.53
52625;BME280;38519;52.540;13.410;2022-09-02T10:08:54;101452.91;;;20.28;48.02
52625;BME280;38519;52.540;13.410;2022-09-02T10:11:24;101449.59;;;20.53;46.47
52625;BME280;38519;52.540;13.410;2022-09-02T10:13:50;101450.81;;;20.41;46.85
52625;BME280;38519;52.540;13.410;2022-09-02T10:18:44;101457.38;;;20.10;46.74
52625;BME280;38519;52.540;13.410;2022-09-02T10:38:52;101438.41;;;20.00;47.24
52625;BME280;38519;52.540;13.410;2022-09-02T10:46:47;101443.69;;;20.00;47.04
52625;BME280;38519;52.540;13.410;2022-09-02T10:49:29;101441.34;;;20.07;47.01
52625;BME280;38519;52.540;13.410;2022-09-02T10:57:10;101431.91;;;20.13;47.31
52625;BME280;38519;52.540;13.410;2022-09-02T11:02:12;101420.69;;;20.60;45.65
52625;BME280;38519;52.540;13.410;2022-09-02T11:04:43;101434.84;;;20.80;44.70
52625;BME280;38519;52.540;13.410;2022-09-02T11:07:13;101420.06;;;20.65;44.64
52625;BME280;38519;52.540;13.410;2022-09-02T11:09:55;101425.19;;;20.82;43.97
52625;BME280;38519;52.540;13.410;2022-09-02T11:12:27;101423.44;;;21.03;43.29
52625;BME280;38519;52.540;13.410;2022-09-02T11:17:38;101415.03;;;20.31;43.45
52625;BME280;38519;52.540;13.410;2022-09-02T11:25:28;101411.28;;;20.27;42.26
52625;BME280;38519;52.540;13.410;2022-09-02T11:30:44;101419.84;;;20.00;43.92
52625;BME280;38519;52.540;13.410;2022-09-02T11:35:41;101412.78;;;20.40;44.93
52625;BME280;38519;52.540;13.410;2022-09-02T11:46:05;101403.63;;;21.84;42.06
52625;BME280;38519;52.540;13.410;2022-09-02T11:49:05;101399.34;;;22.12;41.51
52625;BME280;38519;52.540;13.410;2022-09-02T11:54:19;101400.63;;;21.99;38.97
52625;BME280;38519;52.540;13.410;2022-09-02T11:56:48;101389.03;;;21.73;39.63
52625;BME280;38519;52.540;13.410;2022-09-02T11:59:22;101392.28;;;22.12;39.99
52625;BME280;38519;52.540;13.410;2022-09-02T12:01:51;101397.03;;;21.97;37.75
52625;BME280;38519;52.540;13.410;2022-09-02T12:04:21;101393.88;;;21.83;37.25
52625;BME280;38519;52.540;13.410;2022-09-02T12:09:44;101394.41;;;22.47;36.92
52625;BME280;38519;52.540;13.410;2022-09-02T12:12:42;101385.00;;;22.57;37.88
52625;BME280;38519;52.540;13.410;2022-09-02T12:20:05;101373.53;;;22.85;37.29
52625;BME280;38519;52.540;13.410;2022-09-02T12:22:33;101366.25;;;22.53;38.17
52625;BME280;38519;52.540;13.410;2022-09-02T12:25:02;101365.38;;;22.53;38.52
52625;BME280;38519;52.540;13.410;2022-09-02T12:27:34;101357.31;;;22.77;37.56
52625;BME280;38519;52.540;13.410;2022-09-02T12:30:04;101359.31;;;22.84;37.76
52625;BME280;38519;52.540;13.410;2022-09-02T12:40:39;101341.94;;;22.68;37.08
52625;BME280;38519;52.540;13.410;2022-09-02T12:43:19;101344.41;;;23.17;37.27
52625;BME280;38519;52.540;13.410;2022-09-02T12:45:50;101337.66;;;23.28;37.33
52625;BME280;38519;52.540;13.410;2022-09-02T12:48:17;101344.25;;;23.41;36.61
52625;BME280;38519;52.540;13.410;2022-09-02T12:58:44;101340.97;;;21.21;40.02
52625;BME280;38519;52.540;13.410;2022-09-02T13:06:32;101332.31;;;21.48;40.39
52625;BME280;38519;52.540;13.410;2022-09-02T13:09:06;101333.25;;;21.27;40.77
52625;BME280;38519;52.540;13.410;2022-09-02T13:22:20;101326.31;;;20.65;41.86
52625;BME280;38519;52.540;13.410;2022-09-02T13:27:38;101323.34;;;22.43;38.32
52625;BME280;38519;52.540;13.410;2022-09-02T13:32:34;101317.50;;;22.29;37.96
52625;BME280;38519;52.540;13.410;2022-09-02T13:35:02;101322.47;;;22.19;37.77
52625;BME280;38519;52.540;13.410;2022-09-02T13:40:04;101310.16;;;21.96;38.58
52625;BME280;38519;52.540;13.410;2022-09-02T13:42:30;101307.03;;;22.33;37.97
52625;BME280;38519;52.540;13.410;2022-09-02T13:47:36;101302.44;;;21.79;39.22
52625;BME280;38519;52.540;13.410;2022-09-02T13:50:02;101306.88;;;21.79;39.11
52625;BME280;38519;52.540;13.410;2022-09-02T13:52:29;101308.56;;;21.53;38.72
52625;BME280;38519;52.540;13.410;2022-09-02T13:54:55;101303.50;;;21.38;39.18
52625;BME280;38519;52.540;13.410;2022-09-02T13:57:22;101302.69;;;21.39;39.11
52625;BME280;38519;52.540;13.410;2022-09-02T13:59:49;101296.16;;;21.53;39.08
52625;BME280;38519;52.540;13.410;2022-09-02T14:04:53;101291.44;;;21.69;38.66
52625;BME280;38519;52.540;13.410;2022-09-02T14:07:22;101290.19;;;21.83;38.95
52625;BME280;38519;52.540;13.410;2022-09-02T14:09:48;101283.84;;;21.33;39.93
52625;BME280;38519;52.540;13.410;2022-09-02T14:12:14;101277.25;;;21.45;39.61
52625;BME280;38519;52.540;13.410;2022-09-02T14:14:40;101276.22;;;21.64;39.65
52625;BME280;38519;52.540;13.410;2022-09-02T14:17:19;101279.44;;;21.56;39.40
52625;BME280;38519;52.540;13.410;2022-09-02T14:19:45;101283.28;;;21.64;39.38
52625;BME280;38519;52.540;13.410;2022-09-02T14:22:18;101277.50;;;21.52;39.40
52625;BME280;38519;52.540;13.410;2022-09-02T14:24:45;101279.44;;;21.10;40.54
52625;BME280;38519;52.540;13.410;2022-09-02T14:27:15;101276.13;;;21.39;40.25
52625;BME280;38519;52.540;13.410;2022-09-02T14:29:42;101270.16;;;21.44;39.63
52625;BME280;38519;52.540;13.410;2022-09-02T14:32:19;101269.06;;;21.17;40.42
52625;BME280;38519;52.540;13.410;2022-09-02T14:34:45;101258.44;;;21.17;40.45
52625;BME280;38519;52.540;13.410;2022-09-02T14:39:52;101262.44;;;21.76;39.30
52625;BME280;38519;52.540;13.410;2022-09-02T14:42:17;101272.69;;;21.41;40.37
52625;BME280;38519;52.540;13.410;2022-09-02T14:44:44;101272.47;;;21.13;40.21
52625;BME280;38519;52.540;13.410;2022-09-02T14:47:14;101268.50;;;21.01;41.02
52625;BME280;38519;52.540;13.410;2022-09-02T14:49:47;101267.09;;;21.11;40.66
52625;BME280;38519;52.540;13.410;2022-09-02T14:52:20;101260.03;;;21.12;40.50
52625;BME280;38519;52.540;13.410;2022-09-02T14:54:48;101268.31;;;21.19;39.96
52625;BME280;38519;52.540;13.410;2022-09-02T14:59:45;101264.47;;;21.35;39.67
52625;BME280;38519;52.540;13.410;2022-09-02T15:02:19;101268.09;;;21.37;39.67